createdAt,value
2022-11-24T00:00:37.161Z,-11027.94
2022-11-24T00:03:43.744Z,-11020.38
2022-11-24T00:06:50.262Z,-11010.69
2022-11-24T00:09:56.861Z,-11013.78
2022-11-24T00:13:04.551Z,-11016.03
2022-11-24T00:16:13.162Z,-11021.50
2022-11-24T00:19:31.106Z,-11013.09
2022-11-24T00:22:37.495Z,-10988.97
2022-11-24T00:25:43.793Z,-10995.13
2022-11-24T00:28:52.901Z,-10979.16
2022-11-24T00:32:11.058Z,-10977.91
2022-11-24T00:35:17.328Z,-11007.63
2022-11-24T00:38:23.712Z,-11001.03
2022-11-24T00:41:31.038Z,-11014.06
2022-11-24T00:44:38.627Z,-11025.28
2022-11-24T00:47:44.974Z,-11008.03
2022-11-24T00:50:58.311Z,-11023.19
2022-11-24T00:54:04.665Z,-11023.59
2022-11-24T00:57:11.101Z,-11017.84
2022-11-24T01:00:19.901Z,-11015.19
2022-11-24T01:03:26.012Z,-11014.47
2022-11-24T01:06:32.804Z,-11020.09
2022-11-24T01:09:39.255Z,-11029.06
2022-11-24T01:12:45.381Z,-11017.84
2022-11-24T01:15:53.198Z,-11022.19
2022-11-24T01:18:59.557Z,-11021.50
2022-11-24T01:22:05.658Z,-11033.84
2022-11-24T01:25:13.064Z,-11035.25
2022-11-24T01:28:19.723Z,-11032.72
2022-11-24T01:31:28.128Z,-11028.78
2022-11-24T01:34:34.501Z,-11038.59
2022-11-24T01:37:41.003Z,-11041.97
2022-11-24T01:40:47.583Z,-11043.94
2022-11-24T01:43:55.307Z,-11044.78
2022-11-24T01:47:06.823Z,-11042.25
2022-11-24T01:50:17.757Z,-11044.22
2022-11-24T01:53:39.329Z,-11039.59
2022-11-24T01:56:50.054Z,-11051.94
2022-11-24T02:00:01.248Z,-11049.41
2022-11-24T02:03:10.365Z,-11056.28
2022-11-24T02:06:22.505Z,-11047.03
2022-11-24T02:09:33.728Z,-11039.16
2022-11-24T02:12:42.495Z,-11029.06
2022-11-24T02:15:48.724Z,-11032.16
2022-11-24T02:18:56.765Z,-11033.28
2022-11-24T02:22:04.323Z,-11042.13
2022-11-24T02:25:32.745Z,-11047.44
2022-11-24T02:28:41.357Z,-11042.97
2022-11-24T02:32:02.737Z,-11047.16
2022-11-24T02:35:10.829Z,-11049.84
2022-11-24T02:38:17.020Z,-11047.72
2022-11-24T02:41:26.794Z,-11037.34
2022-11-24T02:44:53.350Z,-11041.69
2022-11-24T02:48:00.057Z,-11042.81
2022-11-24T02:51:06.954Z,-11034.25
2022-11-24T02:54:13.451Z,-11045.34
2022-11-24T02:57:19.953Z,-11030.91
2022-11-24T03:00:27.754Z,-11041.13
2022-11-24T03:03:34.083Z,-11028.09
2022-11-24T03:06:40.710Z,-11034.25
2022-11-24T03:09:47.062Z,-11035.53
2022-11-24T03:12:53.304Z,-11043.09
2022-11-24T03:16:00.796Z,-11027.09
2022-11-24T03:19:07.010Z,-11014.75
2022-11-24T03:22:23.982Z,-11022.91
2022-11-24T03:25:30.188Z,-11023.47
2022-11-24T03:28:50.757Z,-11024.59
2022-11-24T03:31:59.600Z,-11030.19
2022-11-24T03:35:20.396Z,-11034.13
2022-11-24T03:38:26.614Z,-11034.53
2022-11-24T03:41:43.978Z,-11038.75
2022-11-24T03:44:50.455Z,-11046.19
2022-11-24T03:47:58.038Z,-11043.09
2022-11-24T03:51:04.808Z,-11045.78
2022-11-24T03:54:11.108Z,-11038.34
2022-11-24T03:57:17.343Z,-11029.50
2022-11-24T04:00:23.671Z,-11031.03
2022-11-24T04:03:31.519Z,-11035.25
2022-11-24T04:06:38.472Z,-11037.22
2022-11-24T04:09:45.150Z,-11041.69
2022-11-24T04:12:51.549Z,-11038.06
2022-11-24T04:15:57.789Z,-11038.34
2022-11-24T04:19:06.849Z,-11033.84
2022-11-24T04:22:13.156Z,-11033.41
2022-11-24T04:25:19.602Z,-11032.44
2022-11-24T04:28:26.218Z,-11044.50
2022-11-24T04:31:32.473Z,-11030.75
2022-11-24T04:34:40.538Z,-11040.44
2022-11-24T04:37:47.328Z,-11040.28
2022-11-24T04:40:53.815Z,-11028.78
2022-11-24T04:44:00.042Z,-11036.94
2022-11-24T04:47:06.810Z,-11045.34
2022-11-24T04:50:14.633Z,-11044.78
2022-11-24T04:53:20.947Z,-11043.66
2022-11-24T04:56:27.197Z,-11042.97
2022-11-24T04:59:33.402Z,-11051.78
2022-11-24T05:02:40.229Z,-11042.13
2022-11-24T05:06:01.889Z,-11045.06
2022-11-24T05:09:10.368Z,-11050.41
2022-11-24T05:12:16.589Z,-11051.25
2022-11-24T05:15:22.941Z,-11043.38
2022-11-24T05:18:29.629Z,-11045.34
2022-11-24T05:21:37.963Z,-11049.69
2022-11-24T05:24:44.536Z,-11046.19
2022-11-24T05:27:51.049Z,-11047.44
2022-11-24T05:31:00.670Z,-11055.16
2022-11-24T05:34:07.035Z,-11053.19
2022-11-24T05:37:14.936Z,-11051.66
2022-11-24T05:40:21.397Z,-11049.69
2022-11-24T05:43:28.177Z,-11053.06
2022-11-24T05:46:34.463Z,-11053.75
2022-11-24T05:49:41.101Z,-11055.44
2022-11-24T05:52:49.015Z,-11045.34
2022-11-24T05:55:55.450Z,-11054.03
2022-11-24T05:59:06.662Z,-11041.41
2022-11-24T06:02:16.273Z,-11044.09
2022-11-24T06:05:23.278Z,-11043.66
2022-11-24T06:08:31.587Z,-11045.06
2022-11-24T06:11:37.774Z,-11059.94
2022-11-24T06:14:44.249Z,-11051.09
2022-11-24T06:17:56.094Z,-11041.28
2022-11-24T06:21:17.271Z,-11038.34
2022-11-24T06:24:24.769Z,-11039.72
2022-11-24T06:27:31.381Z,-11045.91
2022-11-24T06:30:38.182Z,-11040.84
2022-11-24T06:33:44.390Z,-11034.13
2022-11-24T06:36:50.669Z,-11041.28
2022-11-24T06:39:58.729Z,-11046.31
2022-11-24T06:43:16.795Z,-11049.00
2022-11-24T06:46:22.984Z,-11060.22
2022-11-24T06:49:29.453Z,-11061.19
2022-11-24T06:52:35.465Z,-11046.47
2022-11-24T06:55:43.686Z,-11043.09
2022-11-24T06:59:05.407Z,-11026.53
2022-11-24T07:02:12.103Z,-11053.19
2022-11-24T07:05:32.290Z,-11062.19
2022-11-24T07:08:38.921Z,-11065.84
2022-11-24T07:11:46.470Z,-11053.19
2022-11-24T07:14:53.045Z,-11047.31
2022-11-24T07:17:59.529Z,-11046.03
2022-11-24T07:21:05.996Z,-11052.06
2022-11-24T07:24:12.596Z,-11060.78
2022-11-24T07:27:20.676Z,-11044.09
2022-11-24T07:30:27.541Z,-11054.03
2022-11-24T07:33:33.993Z,-11064.56
2022-11-24T07:36:40.557Z,-11068.63
2022-11-24T07:39:47.088Z,-11062.75
2022-11-24T07:42:55.348Z,-11055.44
2022-11-24T07:46:01.918Z,-11046.47
2022-11-24T07:49:07.964Z,-11054.19
2022-11-24T07:52:14.308Z,-11049.41
2022-11-24T07:55:20.279Z,-11040.56
2022-11-24T07:58:32.409Z,-11037.06
2022-11-24T08:01:39.420Z,-11050.25
2022-11-24T08:04:45.689Z,-11044.78
2022-11-24T08:07:52.111Z,-11042.81
2022-11-24T08:10:58.615Z,-11060.50
2022-11-24T08:14:06.727Z,-11054.75
2022-11-24T08:17:13.140Z,-11073.56
2022-11-24T08:20:19.987Z,-11088.84
2022-11-24T08:23:26.458Z,-11083.22
2022-11-24T08:26:32.711Z,-11087.44
2022-11-24T08:29:40.702Z,-11089.84
2022-11-24T08:32:46.982Z,-11070.59
2022-11-24T08:35:53.390Z,-11077.06
2022-11-24T08:39:01.561Z,-11058.69
2022-11-24T08:42:07.739Z,-11059.38
2022-11-24T08:45:20.766Z,-11059.66
2022-11-24T08:48:27.689Z,-11095.88
2022-11-24T08:51:34.195Z,-11098.13
2022-11-24T08:54:40.969Z,-11096.72
2022-11-24T08:57:47.106Z,-11107.13
2022-11-24T09:00:54.808Z,-11102.91
2022-11-24T09:04:01.289Z,-11110.91
2022-11-24T09:07:07.736Z,-11117.50
2022-11-24T09:10:15.013Z,-11113.00
2022-11-24T09:13:21.384Z,-11107.41
2022-11-24T09:16:44.269Z,-11122.84
2022-11-24T09:19:50.681Z,-11131.97
2022-11-24T09:22:57.964Z,-11130.69
2022-11-24T09:26:06.254Z,-11132.81
2022-11-24T09:29:12.709Z,-11120.59
2022-11-24T09:32:20.669Z,-11120.88
2022-11-24T09:35:27.274Z,-11123.25
2022-11-24T09:38:34.273Z,-11135.34
2022-11-24T09:41:51.188Z,-11139.69
2022-11-24T09:45:41.725Z,-11110.19
2022-11-24T09:48:53.356Z,-11138.84
2022-11-24T09:52:03.609Z,-11143.34
2022-11-24T09:55:25.079Z,-11144.75
2022-11-24T09:58:48.406Z,-11155.16
2022-11-24T10:01:55.970Z,-11161.19
2022-11-24T10:05:03.950Z,-11173.44
2022-11-24T10:08:25.433Z,-11180.72
2022-11-24T10:11:39.862Z,-11193.09
2022-11-24T10:15:04.808Z,-11187.75
2022-11-24T10:18:31.608Z,-11179.03
2022-11-24T10:21:51.319Z,-11177.06
2022-11-24T10:25:09.209Z,-11187.19
2022-11-24T10:28:16.875Z,-11179.47
2022-11-24T10:31:29.678Z,-11170.47
2022-11-24T10:34:39.221Z,-11162.88
2022-11-24T10:38:09.932Z,-11164.28
2022-11-24T10:41:21.503Z,-11170.91
2022-11-24T10:44:27.717Z,-11163.88
2022-11-24T10:47:47.798Z,-11166.69
2022-11-24T10:50:55.630Z,-11167.53
2022-11-24T10:54:09.345Z,-11168.94
2022-11-24T10:57:29.025Z,-11167.25
2022-11-24T11:00:36.471Z,-11170.19
2022-11-24T11:03:48.916Z,-11171.31
2022-11-24T11:07:09.906Z,-11173.44
2022-11-24T11:10:23.694Z,-11168.22
2022-11-24T11:13:32.440Z,-11175.94
2022-11-24T11:16:39.922Z,-11180.72
2022-11-24T11:19:49.458Z,-11184.09
2022-11-24T11:22:57.912Z,-11188.31
2022-11-24T11:26:33.065Z,-11197.31
2022-11-24T11:36:34.029Z,-11219.25
2022-11-24T11:39:48.637Z,-11228.25
2022-11-24T11:43:03.952Z,-11221.94
2022-11-24T11:46:15.705Z,-11218.41
2022-11-24T11:49:22.481Z,-11218.97
2022-11-24T11:52:49.055Z,-11216.88
2022-11-24T11:56:07.666Z,-11219.41
2022-11-24T11:59:41.056Z,-11219.97
2022-11-24T12:03:11.426Z,-11218.28
2022-11-24T12:06:32.461Z,-11215.03
2022-11-24T12:09:52.922Z,-11214.19
2022-11-24T12:13:12.367Z,-11215.19
2022-11-24T12:16:35.783Z,-11214.34
2022-11-24T12:19:57.061Z,-11233.75
2022-11-24T12:23:11.568Z,-11230.38
2022-11-24T12:26:26.318Z,-11228.53
2022-11-24T12:29:58.339Z,-11220.09
2022-11-24T12:33:31.009Z,-11227.97
2022-11-24T12:37:01.198Z,-11252.19
2022-11-24T12:40:15.880Z,-11255.69
2022-11-24T12:43:30.210Z,-11236.16
2022-11-24T12:46:58.243Z,-11257.09
2022-11-24T12:50:11.788Z,-11242.03
2022-11-24T12:53:38.401Z,-11225.72
2022-11-24T12:56:51.107Z,-11225.44
2022-11-24T13:00:03.564Z,-11218.97
2022-11-24T13:03:32.046Z,-11224.31
2022-11-24T13:06:53.046Z,-11223.62
2022-11-24T13:10:54.822Z,-11221.50
2022-11-24T13:14:00.754Z,-11214.75
2022-11-24T13:17:33.718Z,-11212.94
2022-11-24T13:20:45.777Z,-11215.59
2022-11-24T13:23:58.976Z,-11213.34
2022-11-24T13:27:42.841Z,-11219.53
2022-11-24T13:31:11.816Z,-11227.97
2022-11-24T13:34:50.000Z,-11214.63
2022-11-24T13:37:56.338Z,-11202.66
2022-11-24T13:41:27.596Z,-11197.88
2022-11-24T13:44:54.164Z,-11190.56
2022-11-24T13:48:00.409Z,-11182.97
2022-11-24T13:51:19.592Z,-11181.84
2022-11-24T13:54:28.643Z,-11175.38
2022-11-24T13:57:39.497Z,-11177.91
2022-11-24T14:01:20.299Z,-11178.63
2022-11-24T14:04:41.676Z,-11174.25
2022-11-24T14:07:49.969Z,-11170.34
2022-11-24T14:10:58.770Z,-11170.34
2022-11-24T14:14:21.594Z,-11173.44
2022-11-24T14:17:29.385Z,-11171.19
2022-11-24T14:20:35.820Z,-11167.25
2022-11-24T14:23:43.296Z,-11168.37
2022-11-24T14:26:49.550Z,-11169.22
2022-11-24T14:29:59.417Z,-11161.06
2022-11-24T14:33:06.005Z,-11161.19
2022-11-24T14:36:16.136Z,-11159.38
2022-11-24T14:39:24.521Z,-11156.28
2022-11-24T14:42:43.421Z,-11159.50
2022-11-24T14:45:53.055Z,-11153.75
2022-11-24T14:49:00.196Z,-11154.31
2022-11-24T14:52:13.971Z,-11148.81
2022-11-24T14:55:29.225Z,-11151.63
2022-11-24T14:58:41.849Z,-11148.13
2022-11-24T15:01:50.131Z,-11147.00
2022-11-24T15:05:03.717Z,-11142.38
2022-11-24T15:08:15.737Z,-11138.72
2022-11-24T15:11:22.195Z,-11139.13
2022-11-24T15:14:37.805Z,-11139.97
2022-11-24T15:17:50.698Z,-11137.03
2022-11-24T15:20:57.256Z,-11134.06
2022-11-24T15:24:16.232Z,-11138.84
2022-11-24T15:27:22.879Z,-11135.75
2022-11-24T15:30:30.611Z,-11134.91
2022-11-24T15:33:38.359Z,-11134.91
2022-11-24T15:36:44.584Z,-11133.78
2022-11-24T15:39:50.737Z,-11129.72
2022-11-24T15:43:11.821Z,-11135.47
2022-11-24T15:46:18.261Z,-11134.91
2022-11-24T15:49:40.153Z,-11140.81
2022-11-24T15:52:47.273Z,-11139.41
2022-11-24T15:55:54.051Z,-11139.41
2022-11-24T15:59:00.900Z,-11135.06
2022-11-24T16:02:07.420Z,-11135.63
2022-11-24T16:05:17.931Z,-11138.00
2022-11-24T16:08:24.697Z,-11141.38
2022-11-24T16:11:31.154Z,-11139.13
2022-11-24T16:14:38.225Z,-11135.75
2022-11-24T16:17:44.575Z,-11132.38
2022-11-24T16:20:52.520Z,-11135.47
2022-11-24T16:23:58.677Z,-11131.25
2022-11-24T16:27:05.164Z,-11131.81
2022-11-24T16:30:13.903Z,-11128.75
2022-11-24T16:33:19.908Z,-11128.19
2022-11-24T16:36:28.480Z,-11129.03
2022-11-24T16:39:34.781Z,-11126.50
2022-11-24T16:42:40.860Z,-11126.22
2022-11-24T16:45:47.785Z,-11130.97
2022-11-24T16:48:55.744Z,-11126.50
2022-11-24T16:52:03.255Z,-11129.59
2022-11-24T16:55:11.786Z,-11128.47
2022-11-24T16:58:17.850Z,-11130.13
2022-11-24T17:01:26.035Z,-11127.63
2022-11-24T17:04:32.748Z,-11125.22
2022-11-24T17:07:40.607Z,-11124.81
2022-11-24T17:10:46.868Z,-11119.59
2022-11-24T17:13:53.986Z,-11120.03
2022-11-24T17:17:00.258Z,-11116.94
2022-11-24T17:20:08.046Z,-11113.00
2022-11-24T17:23:16.412Z,-11109.50
2022-11-24T17:26:22.965Z,-11109.34
2022-11-24T17:29:30.149Z,-11109.06
2022-11-24T17:32:55.203Z,-11108.22
2022-11-24T17:36:03.981Z,-11104.31
2022-11-24T17:39:12.365Z,-11105.56
2022-11-24T17:42:18.753Z,-11108.22
2022-11-24T17:45:25.427Z,-11104.59
2022-11-24T17:48:32.901Z,-11108.78
2022-11-24T17:51:39.118Z,-11102.62
2022-11-24T17:54:47.045Z,-11100.94
2022-11-24T17:57:53.666Z,-11103.31
2022-11-24T18:01:00.320Z,-11104.88
2022-11-24T18:04:06.674Z,-11107.13
2022-11-24T18:07:13.274Z,-11102.34
2022-11-24T18:10:21.904Z,-11106.13
2022-11-24T18:13:55.737Z,-11108.09
2022-11-24T18:17:02.273Z,-11107.69
2022-11-24T18:20:17.656Z,-11107.13
2022-11-24T18:23:25.451Z,-11105.84
2022-11-24T18:26:42.137Z,-11105.84
2022-11-24T18:30:20.753Z,-11107.13
2022-11-24T18:33:30.380Z,-11106.28
2022-11-24T18:36:56.431Z,-11104.59
2022-11-24T18:40:02.881Z,-11101.91
2022-11-24T18:43:32.908Z,-11100.94
2022-11-24T18:46:54.664Z,-11104.88
2022-11-24T18:50:14.527Z,-11101.22
2022-11-24T18:53:39.034Z,-11100.66
2022-11-24T18:57:08.925Z,-11095.31
2022-11-24T19:00:36.184Z,-11099.53
2022-11-24T19:04:34.712Z,-11098.41
2022-11-24T19:07:53.348Z,-11097.28
2022-11-24T19:11:11.083Z,-11097.00
2022-11-24T19:14:26.327Z,-11098.41
2022-11-24T19:17:55.389Z,-11091.09
2022-11-24T19:21:28.767Z,-11097.13
2022-11-24T19:24:50.100Z,-11095.59
2022-11-24T19:28:03.636Z,-11091.66
2022-11-24T19:31:30.712Z,-11094.03
2022-11-24T19:34:48.171Z,-11093.78
2022-11-24T19:38:13.576Z,-11088.00
2022-11-24T19:41:52.755Z,-11091.09
2022-11-24T19:45:01.025Z,-11086.88
2022-11-24T19:48:21.312Z,-11087.16
2022-11-24T19:52:05.560Z,-11085.06
2022-11-24T19:55:16.794Z,-11087.44
2022-11-24T19:58:45.966Z,-11085.91
2022-11-24T20:01:52.842Z,-11085.19
2022-11-24T20:05:01.584Z,-11087.44
2022-11-24T20:08:09.287Z,-11087.44
2022-11-24T20:11:18.251Z,-11085.47
2022-11-24T20:14:24.654Z,-11083.78
2022-11-24T20:17:32.784Z,-11086.31
2022-11-24T20:20:39.230Z,-11088.84
2022-11-24T20:23:55.063Z,-11084.06
2022-11-24T20:27:02.195Z,-11085.75
2022-11-24T20:30:09.991Z,-11083.94
2022-11-24T20:33:16.552Z,-11086.88
2022-11-24T20:36:26.226Z,-11082.69
2022-11-24T20:39:33.733Z,-11083.66
2022-11-24T20:42:40.368Z,-11083.66
2022-11-24T20:45:57.888Z,-11082.13
2022-11-24T20:49:05.447Z,-11080.28
2022-11-24T20:52:12.064Z,-11081.84
2022-11-24T20:55:19.824Z,-11080.16
2022-11-24T20:58:25.929Z,-11081.13
2022-11-24T21:01:35.212Z,-11081.28
2022-11-24T21:04:41.392Z,-11082.69
2022-11-24T21:07:48.188Z,-11082.69
2022-11-24T21:10:57.091Z,-11080.16
2022-11-24T21:14:04.102Z,-11082.41
2022-11-24T21:17:10.660Z,-11081.28
2022-11-24T21:20:17.244Z,-11080.44
2022-11-24T21:23:23.426Z,-11082.13
2022-11-24T21:26:31.663Z,-11081.00
2022-11-24T21:29:37.882Z,-11081.28
2022-11-24T21:32:44.127Z,-11078.47
2022-11-24T21:35:50.627Z,-11074.25
2022-11-24T21:38:58.467Z,-11074.25
2022-11-24T21:42:07.037Z,-11076.78
2022-11-24T21:45:13.531Z,-11075.38
2022-11-24T21:48:19.558Z,-11076.78
2022-11-24T21:51:25.662Z,-11077.47
2022-11-24T21:54:34.528Z,-11076.91
2022-11-24T21:57:42.726Z,-11075.09
2022-11-24T22:01:03.023Z,-11075.09
2022-11-24T22:04:09.161Z,-11075.94
2022-11-24T22:07:15.369Z,-11075.38
2022-11-24T22:10:22.001Z,-11075.66
2022-11-24T22:13:29.937Z,-11074.81
2022-11-24T22:16:36.224Z,-11074.53
2022-11-24T22:19:42.884Z,-11077.47
2022-11-24T22:22:49.415Z,-11073.97
2022-11-24T22:25:55.648Z,-11076.22
2022-11-24T22:29:03.843Z,-11078.19
2022-11-24T22:32:10.207Z,-11075.94
2022-11-24T22:35:16.361Z,-11074.13
2022-11-24T22:38:22.441Z,-11078.19
2022-11-24T22:41:28.523Z,-11074.81
2022-11-24T22:44:36.779Z,-11079.03
2022-11-24T22:47:43.556Z,-11077.91
2022-11-24T22:50:49.817Z,-11074.53
2022-11-24T22:53:57.983Z,-11076.91
2022-11-24T22:57:04.297Z,-11073.69
2022-11-24T23:00:13.351Z,-11072.16
2022-11-24T23:03:19.646Z,-11074.53
2022-11-24T23:06:27.725Z,-11075.53
2022-11-24T23:09:34.235Z,-11073.56
2022-11-24T23:12:40.945Z,-11075.09
2022-11-24T23:15:49.047Z,-11075.09
2022-11-24T23:18:55.498Z,-11074.81
2022-11-24T23:22:02.268Z,-11075.25
2022-11-24T23:25:09.701Z,-11080.00
2022-11-24T23:28:16.125Z,-11076.78
2022-11-24T23:31:28.443Z,-11073.97
2022-11-24T23:34:34.906Z,-11075.38
2022-11-24T23:38:05.898Z,-11073.28
2022-11-24T23:41:25.231Z,-11071.59
2022-11-24T23:44:31.308Z,-11073.84
2022-11-24T23:47:38.963Z,-11072.84
2022-11-24T23:50:45.046Z,-11071.44
2022-11-24T23:53:52.127Z,-11071.72
2022-11-24T23:56:58.823Z,-11071.72
